sensor_id;sensor_type;location;lat;lon;timestamp;temperature;humidity
41471;DHT22;27211;51.220;5.308;2023-03-01T08:20:20;5.60;99.90
41471;DHT22;27211;51.220;5.308;2023-03-01T08:22:48;6.10;99.90
41471;DHT22;27211;51.220;5.308;2023-03-01T08:25:16;6.10;99.90
41471;DHT22;27211;51.220;5.308;2023-03-01T08:27:43;5.70;99.90
41471;DHT22;27211;51.220;5.308;2023-03-01T08:30:10;6.00;99.90
41471;DHT22;27211;51.220;5.308;2023-03-01T08:32:37;6.60;99.80
41471;DHT22;27211;51.220;5.308;2023-03-01T08:35:15;6.90;99.30
41471;DHT22;27211;51.220;5.308;2023-03-01T08:37:42;7.30;98.40
41471;DHT22;27211;51.220;5.308;2023-03-01T08:40:09;7.50;98.10
41471;DHT22;27211;51.220;5.308;2023-03-01T08:42:38;7.10;98.20
41471;DHT22;27211;51.220;5.308;2023-03-01T08:45:04;7.20;98.40
41471;DHT22;27211;51.220;5.308;2023-03-01T08:47:31;7.60;97.70
41471;DHT22;27211;51.220;5.308;2023-03-01T08:49:59;7.80;97.20
41471;DHT22;27211;51.220;5.308;2023-03-01T08:52:26;8.50;96.50
41471;DHT22;27211;51.220;5.308;2023-03-01T08:54:52;8.70;95.70
41471;DHT22;27211;51.220;5.308;2023-03-01T08:57:18;8.80;95.60
41471;DHT22;27211;51.220;5.308;2023-03-01T08:59:45;9.10;95.20
41471;DHT22;27211;51.220;5.308;2023-03-01T09:02:12;9.70;94.20
41471;DHT22;27211;51.220;5.308;2023-03-01T09:04:38;10.10;93.40
41471;DHT22;27211;51.220;5.308;2023-03-01T09:07:04;10.60;92.20
41471;DHT22;27211;51.220;5.308;2023-03-01T19:56:43;4.90;90.30
41471;DHT22;27211;51.220;5.308;2023-03-01T19:59:16;4.80;90.40
41471;DHT22;27211;51.220;5.308;2023-03-01T20:01:48;4.70;90.70
41471;DHT22;27211;51.220;5.308;2023-03-01T20:04:15;4.80;90.80
41471;DHT22;27211;51.220;5.308;2023-03-01T20:06:49;4.80;90.90
41471;DHT22;27211;51.220;5.308;2023-03-01T20:09:19;4.70;91.10
41471;DHT22;27211;51.220;5.308;2023-03-01T20:11:46;4.50;91.60
41471;DHT22;27211;51.220;5.308;2023-03-01T20:14:12;4.60;91.60
41471;DHT22;27211;51.220;5.308;2023-03-01T20:16:40;4.60;91.90
41471;DHT22;27211;51.220;5.308;2023-03-01T20:19:07;4.60;91.90
41471;DHT22;27211;51.220;5.308;2023-03-01T20:21:40;4.50;92.20
41471;DHT22;27211;51.220;5.308;2023-03-01T20:24:08;4.30;92.50
41471;DHT22;27211;51.220;5.308;2023-03-01T20:26:35;4.40;92.70
41471;DHT22;27211;51.220;5.308;2023-03-01T20:29:08;4.30;92.90
41471;DHT22;27211;51.220;5.308;2023-03-01T20:31:36;4.40;92.90
41471;DHT22;27211;51.220;5.308;2023-03-01T20:34:04;4.40;93.00
41471;DHT22;27211;51.220;5.308;2023-03-01T20:36:36;4.40;93.20
41471;DHT22;27211;51.220;5.308;2023-03-01T20:39:05;4.40;93.20
41471;DHT22;27211;51.220;5.308;2023-03-01T20:41:31;4.30;93.50
41471;DHT22;27211;51.220;5.308;2023-03-01T20:43:58;4.40;93.70
41471;DHT22;27211;51.220;5.308;2023-03-01T20:46:25;4.40;93.60
41471;DHT22;27211;51.220;5.308;2023-03-01T20:48:56;4.30;93.90
41471;DHT22;27211;51.220;5.308;2023-03-01T20:51:29;4.30;93.90
41471;DHT22;27211;51.220;5.308;2023-03-01T20:54:03;4.20;94.20
41471;DHT22;27211;51.220;5.308;2023-03-01T20:56:31;4.10;94.60
41471;DHT22;27211;51.220;5.308;2023-03-01T20:58:59;4.20;94.80
41471;DHT22;27211;51.220;5.308;2023-03-01T21:01:29;4.20;94.80
41471;DHT22;27211;51.220;5.308;2023-03-01T21:03:56;4.30;94.70
41471;DHT22;27211;51.220;5.308;2023-03-01T21:06:39;4.20;94.80
41471;DHT22;27211;51.220;5.308;2023-03-01T21:09:07;4.10;95.10
41471;DHT22;27211;51.220;5.308;2023-03-01T21:11:36;4.00;95.20
41471;DHT22;27211;51.220;5.308;2023-03-01T21:14:03;4.00;95.50
41471;DHT22;27211;51.220;5.308;2023-03-01T21:16:30;4.10;95.70
41471;DHT22;27211;51.220;5.308;2023-03-01T21:19:01;4.10;95.60
41471;DHT22;27211;51.220;5.308;2023-03-01T21:21:31;4.10;95.40
41471;DHT22;27211;51.220;5.308;2023-03-01T21:23:58;4.00;95.70
41471;DHT22;27211;51.220;5.308;2023-03-01T21:26:27;4.00;95.80
41471;DHT22;27211;51.220;5.308;2023-03-01T21:28:56;4.10;95.50
41471;DHT22;27211;51.220;5.308;2023-03-01T21:31:24;4.10;95.70
41471;DHT22;27211;51.220;5.308;2023-03-01T21:33:58;4.00;95.70
41471;DHT22;27211;51.220;5.308;2023-03-01T21:36:25;3.80;96.20
41471;DHT22;27211;51.220;5.308;2023-03-01T21:38:54;3.80;96.30
41471;DHT22;27211;51.220;5.308;2023-03-01T21:41:23;3.80;96.40
41471;DHT22;27211;51.220;5.308;2023-03-01T21:43:52;3.80;96.40
41471;DHT22;27211;51.220;5.308;2023-03-01T21:46:24;4.00;96.30
41471;DHT22;27211;51.220;5.308;2023-03-01T21:48:57;3.80;96.50
41471;DHT22;27211;51.220;5.308;2023-03-01T21:51:31;3.80;97.00
41471;DHT22;27211;51.220;5.308;2023-03-01T21:53:59;3.80;96.80
41471;DHT22;27211;51.220;5.308;2023-03-01T21:56:29;3.70;97.10
41471;DHT22;27211;51.220;5.308;2023-03-01T21:58:58;3.70;97.10
41471;DHT22;27211;51.220;5.308;2023-03-01T22:01:25;3.70;97.20
41471;DHT22;27211;51.220;5.308;2023-03-01T22:03:55;3.70;97.30
41471;DHT22;27211;51.220;5.308;2023-03-01T22:06:35;3.60;97.60
41471;DHT22;27211;51.220;5.308;2023-03-01T22:09:06;3.80;97.30
41471;DHT22;27211;51.220;5.308;2023-03-01T22:11:35;3.70;97.40
41471;DHT22;27211;51.220;5.308;2023-03-01T22:14:02;3.60;97.70
41471;DHT22;27211;51.220;5.308;2023-03-01T22:16:29;3.50;98.00
41471;DHT22;27211;51.220;5.308;2023-03-01T22:18:58;3.50;98.30
41471;DHT22;27211;51.220;5.308;2023-03-01T22:21:25;3.50;98.40
41471;DHT22;27211;51.220;5.308;2023-03-01T22:23:52;3.60;98.60
41471;DHT22;27211;51.220;5.308;2023-03-01T22:26:22;3.60;98.30
41471;DHT22;27211;51.220;5.308;2023-03-01T22:28:49;3.80;98.30
41471;DHT22;27211;51.220;5.308;2023-03-01T22:31:16;3.60;98.40
41471;DHT22;27211;51.220;5.308;2023-03-01T22:33:51;3.40;98.80
41471;DHT22;27211;51.220;5.308;2023-03-01T22:36:27;3.40;99.10
41471;DHT22;27211;51.220;5.308;2023-03-01T22:38:55;3.20;99.70
41471;DHT22;27211;51.220;5.308;2023-03-01T22:41:34;3.20;99.90
41471;DHT22;27211;51.220;5.308;2023-03-01T22:44:02;3.30;99.90
41471;DHT22;27211;51.220;5.308;2023-03-01T22:46:28;3.30;99.90
41471;DHT22;27211;51.220;5.308;2023-03-01T22:48:58;3.30;99.90
41471;DHT22;27211;51.220;5.308;2023-03-01T22:51:26;3.10;99.90
41471;DHT22;27211;51.220;5.308;2023-03-01T22:53:59;3.10;99.90
41471;DHT22;27211;51.220;5.308;2023-03-01T22:56:28;3.20;99.90
41471;DHT22;27211;51.220;5.308;2023-03-01T22:58:59;3.10;99.90
41471;DHT22;27211;51.220;5.308;2023-03-01T23:01:27;3.20;99.90
41471;DHT22;27211;51.220;5.308;2023-03-01T23:03:54;3.00;99.90
41471;DHT22;27211;51.220;5.308;2023-03-01T23:06:30;3.10;99.90
41471;DHT22;27211;51.220;5.308;2023-03-01T23:08:59;3.00;99.90
41471;DHT22;27211;51.220;5.308;2023-03-01T23:11:26;2.90;99.90
41471;DHT22;27211;51.220;5.308;2023-03-01T23:13:53;2.90;99.90
41471;DHT22;27211;51.220;5.308;2023-03-01T23:16:19;2.80;99.90
41471;DHT22;27211;51.220;5.308;2023-03-01T23:18:57;2.90;99.90
41471;DHT22;27211;51.220;5.308;2023-03-01T23:21:28;2.80;99.90
41471;DHT22;27211;51.220;5.308;2023-03-01T23:23:56;2.80;99.90
41471;DHT22;27211;51.220;5.308;2023-03-01T23:26:27;2.90;99.90
41471;DHT22;27211;51.220;5.308;2023-03-01T23:28:55;2.90;99.90
41471;DHT22;27211;51.220;5.308;2023-03-01T23:31:21;3.00;99.90
41471;DHT22;27211;51.220;5.308;2023-03-01T23:33:47;2.90;99.90
41471;DHT22;27211;51.220;5.308;2023-03-01T23:36:24;2.80;99.90
41471;DHT22;27211;51.220;5.308;2023-03-01T23:38:54;2.70;99.90
41471;DHT22;27211;51.220;5.308;2023-03-01T23:41:23;2.80;99.90
41471;DHT22;27211;51.220;5.308;2023-03-01T23:43:51;2.80;99.90
41471;DHT22;27211;51.220;5.308;2023-03-01T23:46:21;2.70;99.90
41471;DHT22;27211;51.220;5.308;2023-03-01T23:48:48;2.80;99.90
41471;DHT22;27211;51.220;5.308;2023-03-01T23:51:23;2.70;99.90
41471;DHT22;27211;51.220;5.308;2023-03-01T23:54:01;2.70;99.90
41471;DHT22;27211;51.220;5.308;2023-03-01T23:56:31;2.60;99.90
41471;DHT22;27211;51.220;5.308;2023-03-01T23:58:58;2.70;99.90
